Aviation Digital Data Service (ADDS)

Output produced by METARs form (1201 UTC 16 July 2019)
found at http://www.aviationweather.gov/metar/data/
 
EGAA 161150Z 22006KT 170V260 9999 SCT040 BKN048 19/14 Q1018
TAF EGAA 161059Z 1612/1712 22006KT 9999 SCT030 
     PROB30 
     TEMPO 1612/1622 7000 SHRA 
     PROB40 
     TEMPO 1707/1709 7000 RA BKN014 
     BECMG 1709/1712 BKN012 
     PROB40 
     TEMPO 1709/1712 7000 RA BKN008
       
EGYE 160950Z 32006KT 9999 FEW040 ///// Q1019 RMK BLU
EGPL 161150Z 21017KT 9999 SCT014 17/13 Q1015
TAF EGPL 161103Z 1612/1617 20009KT 9999 FEW007 SCT015 
     PROB30 
     TEMPO 1614/1617 BKN010
       
EGUB 161150Z 26004KT 9999 FEW045 24/08 Q1019 NOSIG RMK BLU BLU
TAF EGUB 161039Z 1612/1706 19005KT CAVOK 
     PROB30 1703/1706 7000 HZ
       
EGKB 161150Z 31004KT 240V010 9999 FEW045 21/11 Q1020
TAF EGKB 161100Z 1612/1621 27006KT CAVOK
       
EGBB 161150Z VRB03KT 9999 FEW044TCU 21/12 Q1019
TAF EGBB 161056Z 1612/1712 34005KT 9999 SCT040 
     PROB30 
     TEMPO 1612/1616 7000 SHRA 
     PROB30 1700/1708 9000 
     BECMG 1709/1712 23010KT
       
EGNH 161150Z 27009KT 250V310 9999 FEW045 21/14 Q1019
TAF EGNH 161058Z 1612/1620 27009KT 9999 FEW035
       
EGDM 161150Z 25004KT 9999 SCT044 21/10 Q1019 NOSIG RMK BLU BLU
TAF EGDM 161035Z 1612/1621 22006KT 9999 FEW045
       
EGHH 161150Z 19008KT 120V220 9999 FEW027 21/12 Q1019
TAF EGHH 161101Z 1612/1621 17007KT 9999 FEW030 
     BECMG 1615/1618 23010KT
       
EGGD 161150Z AUTO VRB03KT 9999 FEW034 22/12 Q1019
TAF EGGD 161055Z 1612/1712 25005KT 9999 SCT025 
     BECMG 1701/1704 6000 BKN006 
     PROB40 
     TEMPO 1702/1706 4000 BR BKN002 
     BECMG 1704/1707 9999 FEW010
       
EGVN 161150Z 07004KT CAVOK 24/09 Q1019 NOSIG RMK BLU BLU
TAF EGVN 161024Z 1612/1712 VRB05KT 9999 FEW040 
     PROB40 1703/1708 4500 HZ
       
EGCK 161150Z 25011KT 9999 SCT032 20/13 Q1019
TAF EGCK 161058Z 1612/1621 23008KT 9999 FEW035
       
EGSC 161150Z 27002KT 9999 SCT045 25/12 Q1018
TAF EGSC 161101Z 1612/1619 23004KT 9999 SCT040
       
EGEC 161150Z 29005KT 9999 FEW020 BKN048 18/15 Q1017
TAF EGEC 161058Z 1612/1617 VRB03KT 9999 FEW045
       
EGFF 161150Z AUTO 23005KT 190V270 9999 NCD 22/14 Q1019
TAF EGFF 161056Z 1612/1712 21004KT 9999 FEW020 
     BECMG 1612/1615 27010KT
       
EGLC 161150Z AUTO 15005KT 100V180 9999 NCD 24/10 Q1019
TAF EGLC 161100Z 1612/1621 25007KT CAVOK
       
EGAC 161150Z AUTO 21008KT 9999 NCD 20/14 Q1017
TAF EGAC 161058Z 1612/1621 21008KT 9999 SCT025 
     PROB30 
     TEMPO 1612/1621 7000 SHRA
       
EGXC 161150Z 33007KT 9999 FEW045 24/13 Q1018 NOSIG RMK BLU BLU
TAF EGXC 161033Z 1612/1706 30007KT 9999 SCT045
       
EGWC 161150Z 33002KT 9999 FEW030 22/14 Q1019 RMK BLU
TAF EGWC 161039Z 1612/1618 VRB04KT 9999 SCT035
       
EGTC 161150Z 18005KT 9999 FEW048 24/11 Q1019
TAF EGTC 161101Z 1612/1618 24004KT 9999 SCT040
       
EGYD 161150Z 23003KT 9999 SCT045 23/13 Q1018 NOSIG RMK BLU BLU
TAF EGYD 161032Z 1612/1618 31008KT 9999 FEW048
       
EGDR 161150Z 12008KT 9999 FEW022 20/12 Q1019 NOSIG RMK BLU BLU
TAF EGDR 161043Z 1612/1621 12010KT 9999 FEW025 
     BECMG 1612/1614 16010KT
       
EGPN 161150Z 25009KT 9999 FEW035 22/16 Q1016
TAF EGPN 161103Z 1612/1620 26009KT 9999 FEW020 
     PROB30 
     TEMPO 1613/1618 7000 SHRA
       
EGPD 161150Z AUTO 11006KT 080V140 9999 NCD 19/15 Q1016
TAF EGPD 161102Z 1612/1712 09006KT 9999 FEW020 
     PROB40 
     TEMPO 1612/1621 7000 SHRA 
     PROB40 1700/1706 2000 BR BKN004 
     BECMG 1706/1709 18010KT
       
EGNX 161150Z 28008KT 250V330 9999 FEW040 24/12 Q1018
TAF EGNX 161056Z 1612/1712 27005KT 9999 SCT030 
     PROB30 
     TEMPO 1612/1617 7000 SHRA 
     PROB30 1700/1708 9000
       
EGPH 161150Z 27006KT 240V300 9999 SCT022 19/16 Q1016
TAF EGPH 161102Z 1612/1712 25007KT 9999 FEW015 
     PROB30 
     TEMPO 1612/1618 7000 SHRA 
     PROB30 1700/1705 3000 BR
       
EGTE 161150Z 16008KT 110V200 9999 FEW038 22/13 Q1019
TAF EGTE 161101Z 1612/1621 16007KT 9999 FEW045
       
EGVA 161056Z 14002KT 9999 CLR 22/11 A3009 RMK AO2A SLP191 T02190110 RVRNO WND DATA ESTMD $
EGLF 161150Z AUTO VRB03KT 9999 NCD 23/11 Q1019
TAF EGLF 161100Z 1612/1621 27006KT CAVOK
       
EGKK 161150Z VRB02KT 9999 FEW042 24/11 Q1019
TAF EGKK 161058Z 1612/1718 24006KT CAVOK 
     PROB40 1702/1705 8000 
     BECMG 1706/1709 18010KT
       
EGPF 161150Z AUTO 31006KT 280V350 9999 BKN018 19/16 Q1017
TAF EGPF 161102Z 1612/1712 23006KT 9999 SCT015 
     PROB30 1700/1705 3000 BR 
     PROB30 
     TEMPO 1706/1710 8000 -RA BKN014 
     PROB40 
     TEMPO 1710/1712 7000 RA BKN012
       
EGBJ 161150Z 00000KT 9999 FEW045 24/12 Q1018
TAF EGBJ 161101Z 1612/1619 27005KT 9999 FEW045
       
EGNR 161150Z VRB02KT 9999 SCT040 22/14 Q1019
TAF EGNR 161058Z 1612/1620 VRB03KT 9999 FEW035 
     TEMPO 1612/1617 9000 -SHRA 
     PROB30 
     TEMPO 1612/1615 SHRA 
     BECMG 1613/1616 33010KT
       
EGLL 161150Z AUTO 22006KT 150V280 9999 NCD 25/09 Q1019
TAF EGLL 161101Z 1612/1718 23004KT CAVOK
       
EGNJ 161150Z 28010KT 250V320 9999 FEW035 SCT042 24/12 Q1018
TAF EGNJ 161058Z 1612/1621 25008KT 9999 SCT040 
     PROB30 
     TEMPO 1612/1616 7000 SHRA
       
EGPE 161150Z 26008KT 210V310 9999 FEW028 SCT040 22/15 Q1015
TAF EGPE 161103Z 1612/1621 22009KT 9999 FEW015 
     PROB30 
     TEMPO 1613/1618 6000 SHRA
       
EGPI 161150Z 26004KT 220V360 9999 FEW024 18/14 Q1017
TAF EGPI 161058Z 1612/1618 27005KT 9999 FEW045
       
EGTK 161120Z 08004KT 350V110 9999 FEW030 23/11 Q1019
TAF EGTK 161101Z 1612/1621 17010KT 9999 FEW025 
     BECMG 1612/1615 23005KT
       
EGQK 161050Z AUTO 35005KT 9999 BKN070/// SCT110/// 20/14 Q1015
EGPA 161150Z 13005KT 090V180 5000 VCFG BKN006 15/14 Q1015
TAF EGPA 161103Z 1612/1621 16007KT 9999 SCT010 
     TEMPO 1612/1621 4000 BR BKN004 
     PROB30 
     TEMPO 1612/1621 0600 FG BKN001
       
EGUL 161056Z AUTO 27003KT 9999 CLR 23/13 A3007 RMK AO2 SLP186 T02340133 $
TAF EGUL 160500Z 1605/1711 23006KT 9999 SCT030 QNH3009INS 
     BECMG 1612/1613 33006KT 9999 SCT040 QNH3005INS 
     BECMG 1621/1622 15006KT 9999 SCT045 QNH2996INS TX25/1615Z TN09/1605Z
       
EGNM 161150Z 27010KT 240V310 9999 FEW032 21/12 Q1018
TAF EGNM 161055Z 1612/1712 26007KT 9999 FEW030 
     PROB30 
     TEMPO 1612/1617 8000 SHRA
       
EGXE 161150Z 25006KT 9999 FEW040 BKN180 23/13 Q1018 NOSIG RMK BLU BLU
TAF EGXE 161044Z 1612/1618 26010KT 9999 FEW045
       
EGQL 161050Z 25010KT 9999 FEW030 BKN100 22/15 Q1016 BLU
TAF EGQL 161052Z 1612/1621 29008KT 9999 FEW040 
     PROB30 
     TEMPO 1612/1620 7000 SHRA
       
EGXU 161150Z 25007KT 9999 FEW038 SCT080 BKN250 23/13 Q1018 NOSIG RMK BLU BLU
TAF EGXU 161023Z 1612/1618 27010KT 9999 FEW045
       
EGGP 161150Z 24007KT 9999 FEW037 23/11 Q1019
TAF EGGP 161057Z 1612/1712 20005KT 9999 FEW035 
     BECMG 1612/1615 31010KT 
     BECMG 1623/1702 VRB03KT 
     BECMG 1709/1712 24010KT
       
EGAE 161150Z 23011KT 9999 SCT034 21/14 Q1017
TAF EGAE 161058Z 1612/1621 24008KT 9999 SCT030 
     PROB30 
     TEMPO 1612/1621 7000 SHRA
       
EGQS 161150Z 31007KT 9999 FEW030 SCT070 BKN110 20/14 Q1015 NOSIG RMK BLU BLU
TAF EGQS 161034Z 1612/1706 06004KT 9999 FEW030 
     PROB30 
     TEMPO 1613/1620 7000 SHRA 
     PROB30 1622/1704 1500 BR
       
EGGW 161150Z AUTO VRB03KT 9999 NCD 25/09 Q1019
TAF EGGW 161055Z 1612/1712 VRB04KT 9999 SCT045 
     PROB30 1702/1706 9000 
     BECMG 1706/1709 21010KT
       
EGMD 161150Z 21009KT 180V240 9999 FEW025 19/13 Q1020
TAF EGMD 161100Z 1612/1621 20010KT CAVOK
       
EGCC 161150Z AUTO VRB03KT 9999 NCD 20/12 Q1019
TAF EGCC 161057Z 1612/1718 VRB03KT 9999 FEW045 
     BECMG 1612/1615 31010KT 
     PROB30 
     TEMPO 1612/1615 7000 SHRA 
     BECMG 1621/1624 VRB03KT 
     BECMG 1709/1712 22010KT 
     TEMPO 1714/1718 7000 RA 
     PROB30 
     TEMPO 1716/1718 BKN010
       
EGYM 161150Z 30005KT 9999 SCT042 24/13 Q1018 NOSIG RMK BLU BLU
TAF EGYM 161010Z 1612/1621 VRB04KT 9999 FEW035 
     PROB30 
     TEMPO 1613/1619 6000 SHRA SCT030TCU
       
EGUN 161056Z COR AUTO 33006KT 9999 SCT050 23/14 A3007 RMK AO2 SLPNO RVRNO PWINO FZRANO VISNO RWY11 $ COR 1116
TAF EGUN 160401Z 1604/1710 VRB06KT 9999 SCT030 QNH2999INS TX24/1614Z TN10/1604Z
       
EGNT 161150Z 25010KT 220V280 9999 FEW028 20/14 Q1017
TAF EGNT 161057Z 1612/1712 26010KT 9999 FEW025 
     TEMPO 1612/1617 9000 -SHRA 
     PROB30 1613/1616 SHRA 
     BECMG 1700/1703 VRB03KT 
     BECMG 1709/1712 22010KT
       
EGWU 161150Z 29002KT CAVOK 24/10 Q1019 NOSIG RMK BLU BLU
TAF EGWU 161025Z 1612/1706 VRB03KT CAVOK
       
EGSH 161150Z VRB03KT 9999 SCT042 24/12 Q1018
TAF EGSH 161101Z 1612/1621 31005KT 9999 SCT035 
     BECMG 1612/1615 06010KT 
     BECMG 1615/1618 14006KT
       
EGVO 161150Z 24006KT 9999 SCT045 22/10 Q1019 NOSIG RMK BLU BLU
TAF EGVO 161030Z 1612/1624 22005KT 9999 FEW040
       
EGPK 161150Z 24008KT 9999 FEW018 SCT045 19/15 Q1017
TAF EGPK 161102Z 1612/1712 21007KT 9999 FEW015 
     PROB40 
     TEMPO 1710/1712 7000 RA BKN012
       
EGXP 161150Z 34006KT 9999 SCT041 BKN080 23/13 Q1018 RMK BLU
TAF EGXP 161022Z 1612/1617 31006KT 9999 SCT045
       
EGPM 161150Z 16010KT 9999 -RA FEW008 BKN014 14/12 Q1016 TEMPO BKN015
TAF EGPM 161103Z 1612/1620 15009KT 9999 FEW008 SCT015 
     TEMPO 1612/1620 6000 -RADZ BKN006 
     PROB30 
     TEMPO 1612/1620 0300 FG VV///
       
EGOS 161150Z 05005KT 9999 SCT040 21/13 Q1018 NOSIG RMK BLU BLU
TAF EGOS 161039Z 1612/1618 VRB04KT 9999 SCT035
       
TAF EGSY 161101Z 1612/1616 24006KT 9999 FEW030
       
EGKA 161150Z 17008KT CAVOK 19/13 Q1020
TAF EGKA 161100Z 1612/1619 20008KT CAVOK
       
EGHI 161150Z 12004KT 050V180 9999 FEW038 21/10 Q1019
TAF EGHI 161101Z 1612/1621 VRB03KT 9999 FEW035 
     BECMG 1612/1615 20010KT
       
EGMC 161150Z 18009KT 140V210 9999 FEW043 23/11 Q1019
TAF EGMC 161100Z 1612/1621 25006KT CAVOK
       
EGSS 161150Z AUTO VRB03KT 9999 NCD 23/11 Q1019
TAF EGSS 161055Z 1612/1718 VRB04KT 9999 SCT045 
     PROB30 1702/1707 9000 
     BECMG 1706/1709 19010KT
       
EGPO 161150Z 18013KT 9999 SCT020 18/14 Q1015
TAF EGPO 161103Z 1612/1621 19010KT 9999 FEW015 SCT030 
     PROB30 
     TEMPO 1615/1621 BKN010
       
EGPB 161150Z 16003KT 1300 -RA BR FEW001 BKN002 12/12 Q1016 TEMPO 4000 BKN003
TAF EGPB 161103Z 1612/1621 14009KT 9999 BKN005 
     TEMPO 1612/1621 4000 -DZ BR BKN003 
     PROB30 
     TEMPO 1612/1621 0300 FG VV///
       
EGNV 161150Z 28012KT 240V300 9999 FEW025 23/11 Q1018
TAF EGNV 161058Z 1612/1621 VRB03KT 9999 FEW030 
     BECMG 1612/1615 26010KT
       
EGPU 161150Z 20011KT 9999 BKN006 SCT017 BKN024 17/14 Q1016
TAF EGPU 161103Z 1612/1618 18009KT 9999 FEW020
       
EGXZ 161050Z AUTO 28004KT 9999 BKN080/// 22/14 Q1018
EGOV 161150Z 20010KT 9999 FEW007 19/15 Q1019 NOSIG RMK BLU BLU
TAF EGOV 161023Z 1612/1619 19012KT 9999 FEW007
       
EGXW 161150Z 27007KT 9999 FEW040 SCT050 22/12 Q1018 NOSIG RMK BLU BLU
TAF EGXW 161021Z 1612/1706 31006KT 9999 SCT045
       
EGNO 161150Z 27010KT 230V310 9999 FEW033 21/12 Q1019
TAF EGNO 161058Z 1612/1618 27009KT 9999 FEW035
       
EGUW 161150Z 33005KT 9999 FEW044 23/12 Q1018 NOSIG RMK BLU BLU
TAF EGUW 161020Z 1612/1621 30005KT 9999 FEW045 
     BECMG 1616/1618 13005KT
       
EGPC 161150Z 17009KT 9999 VCFG FEW002 14/13 Q1015
TAF EGPC 161103Z 1612/1621 13007KT 9999 SCT010 
     TEMPO 1612/1621 4000 BR BKN004 
     PROB30 
     TEMPO 1612/1621 0600 FG BKN001
       
EGXT 161150Z 23005KT 9999 SCT045 24/13 Q1018 RMK BLU
TAF EGXT 161027Z 1612/1618 27007KT 9999 FEW040
       
EGOW 161150Z 29010KT 9999 FEW040 22/11 Q1019 RMK BLU
TAF EGOW 161027Z 1612/1618 25009KT 9999 SCT045
       
EGDY 161150Z 29005KT 9999 SCT038 21/12 Q1019 NOSIG RMK BLU BLU
TAF EGDY 161026Z 1612/1621 22006KT 9999 SCT045